Time,TemperatureF,DewpointF,PressureIn,WindDirection,WindDirectionDegrees,WindSpeedMPH,WindSpeedGustMPH,Humidity,HourlyPrecipIn,Conditions,Clouds,dailyrainin,SoftwareType,DateUTC
2013-07-11 00:05:00,71.0,46.0,29.68,NW,309,9.0,9.0,41,0.00,,,0.00,weatherlink.com 1.10,2013-07-11 06:05:00,
2013-07-11 00:20:00,73.0,46.0,29.68,WNW,290,6.0,9.0,38,0.00,,,0.00,weatherlink.com 1.10,2013-07-11 06:20:00,
2013-07-11 00:35:00,71.9,46.0,29.67,WNW,290,5.0,6.0,39,0.00,,,0.00,weatherlink.com 1.10,2013-07-11 06:35:00,
2013-07-11 00:50:00,72.7,45.0,29.67,WNW,290,6.0,7.0,37,0.00,,,0.00,weatherlink.com 1.10,2013-07-11 06:50:00,
2013-07-11 01:05:00,73.6,44.0,29.66,WNW,290,6.0,9.0,35,0.00,,,0.00,weatherlink.com 1.10,2013-07-11 07:05:00,
2013-07-11 01:20:00,72.9,44.0,29.66,WNW,290,5.0,7.0,36,0.00,,,0.00,weatherlink.com 1.10,2013-07-11 07:20:00,
2013-07-11 01:35:00,73.3,44.0,29.65,WNW,290,4.0,8.0,35,0.00,,,0.00,weatherlink.com 1.10,2013-07-11 07:35:00,
2013-07-11 01:50:00,72.1,46.0,29.64,East,85,13.0,15.0,39,0.00,,,0.00,weatherlink.com 1.10,2013-07-11 07:50:00,
2013-07-11 02:05:00,75.7,44.0,29.64,SW,235,6.0,11.0,32,0.00,,,0.00,weatherlink.com 1.10,2013-07-11 08:05:00,
2013-07-11 02:20:00,72.7,44.0,29.64,SW,235,5.0,7.0,36,0.00,,,0.00,weatherlink.com 1.10,2013-07-11 08:20:00,
2013-07-11 02:35:00,71.8,45.0,29.63,SW,235,0.0,7.0,38,0.00,,,0.00,weatherlink.com 1.10,2013-07-11 08:35:00,
2013-07-11 02:50:00,71.8,45.0,29.63,SW,235,0.0,5.0,38,0.00,,,0.00,weatherlink.com 1.10,2013-07-11 08:50:00,
2013-07-11 03:05:00,70.5,46.0,29.63,SW,235,3.0,5.0,42,0.00,,,0.00,weatherlink.com 1.10,2013-07-11 09:05:00,
2013-07-11 03:20:00,68.3,47.0,29.62,SW,235,0.0,0.0,46,0.00,,,0.00,weatherlink.com 1.10,2013-07-11 09:20:00,
2013-07-11 03:36:00,66.7,47.0,29.61,SW,235,0.0,0.0,50,0.00,,,0.00,weatherlink.com 1.10,2013-07-11 09:36:00,
2013-07-11 03:51:00,66.1,47.0,29.61,SW,235,0.0,1.0,51,0.00,,,0.00,weatherlink.com 1.10,2013-07-11 09:51:00,
2013-07-11 04:06:00,64.7,47.0,29.61,SW,235,2.0,4.0,54,0.00,,,0.00,weatherlink.com 1.10,2013-07-11 10:06:00,
2013-07-11 04:21:00,63.9,47.0,29.61,SW,235,0.0,3.0,54,0.00,,,0.00,weatherlink.com 1.10,2013-07-11 10:21:00,
2013-07-11 04:36:00,63.9,47.0,29.60,SW,235,0.0,4.0,54,0.00,,,0.00,weatherlink.com 1.10,2013-07-11 10:36:00,
2013-07-11 04:51:00,62.9,46.0,29.60,SW,235,3.0,4.0,55,0.00,,,0.00,weatherlink.com 1.10,2013-07-11 10:51:00,
2013-07-11 05:06:00,62.9,46.0,29.61,SW,235,0.0,4.0,55,0.00,,,0.00,weatherlink.com 1.10,2013-07-11 11:06:00,
2013-07-11 05:21:00,63.1,46.0,29.61,SW,235,0.0,0.0,55,0.00,,,0.00,weatherlink.com 1.10,2013-07-11 11:21:00,
2013-07-11 05:36:00,63.8,46.0,29.61,SW,235,4.0,4.0,52,0.00,,,0.00,weatherlink.com 1.10,2013-07-11 11:36:00,
2013-07-11 05:51:00,62.0,46.0,29.61,SW,235,2.0,4.0,56,0.00,,,0.00,weatherlink.com 1.10,2013-07-11 11:51:00,
2013-07-11 06:06:00,61.6,46.0,29.61,SW,235,7.0,7.0,57,0.00,,,0.00,weatherlink.com 1.10,2013-07-11 12:06:00,
2013-07-11 06:21:00,61.0,47.0,29.61,SW,235,5.0,6.0,61,0.00,,,0.00,weatherlink.com 1.10,2013-07-11 12:21:00,
2013-07-11 06:36:00,61.3,48.0,29.61,SW,235,2.0,3.0,61,0.00,,,0.00,weatherlink.com 1.10,2013-07-11 12:36:00,
2013-07-11 06:51:00,62.3,48.0,29.60,SW,235,0.0,2.0,60,0.00,,,0.00,weatherlink.com 1.10,2013-07-11 12:51:00,
2013-07-11 07:06:00,63.5,47.0,29.61,SW,235,0.0,2.0,56,0.00,,,0.00,weatherlink.com 1.10,2013-07-11 13:06:00,
2013-07-11 07:21:00,64.0,49.0,29.60,SW,235,0.0,1.0,59,0.00,,,0.00,weatherlink.com 1.10,2013-07-11 13:21:00,
2013-07-11 07:36:00,64.0,49.0,29.60,SW,235,0.0,3.0,59,0.00,,,0.00,weatherlink.com 1.10,2013-07-11 13:36:00,
2013-07-11 07:51:00,64.4,50.0,29.60,SW,235,0.0,2.0,60,0.00,,,0.00,weatherlink.com 1.10,2013-07-11 13:51:00,
2013-07-11 08:06:00,66.8,47.0,29.60,SW,235,1.0,4.0,49,0.00,,,0.00,weatherlink.com 1.10,2013-07-11 14:06:00,
2013-07-11 08:21:00,70.1,47.0,29.61,SW,235,2.0,3.0,44,0.00,,,0.00,weatherlink.com 1.10,2013-07-11 14:21:00,
2013-07-11 08:36:00,73.0,46.0,29.61,SW,221,0.0,7.0,38,0.00,,,0.00,weatherlink.com 1.10,2013-07-11 14:36:00,
2013-07-11 08:51:00,76.6,45.0,29.61,SW,221,3.0,5.0,33,0.00,,,0.00,weatherlink.com 1.10,2013-07-11 14:51:00,
2013-07-11 09:06:00,78.0,44.0,29.60,SW,221,4.0,7.0,30,0.00,,,0.00,weatherlink.com 1.10,2013-07-11 15:06:00,
2013-07-11 09:21:00,78.5,44.0,29.60,SW,221,5.0,5.0,29,0.00,,,0.00,weatherlink.com 1.10,2013-07-11 15:21:00,
2013-07-11 09:36:00,79.8,44.0,29.59,SW,221,1.0,6.0,28,0.00,,,0.00,weatherlink.com 1.10,2013-07-11 15:36:00,
2013-07-11 09:51:00,80.0,45.0,29.59,SW,221,1.0,4.0,29,0.00,,,0.00,weatherlink.com 1.10,2013-07-11 15:51:00,
2013-07-11 10:06:00,80.0,44.0,29.58,SW,221,0.0,4.0,28,0.00,,,0.00,weatherlink.com 1.10,2013-07-11 16:06:00,
2013-07-11 10:21:00,80.1,45.0,29.58,SW,221,1.0,3.0,29,0.00,,,0.00,weatherlink.com 1.10,2013-07-11 16:21:00,
2013-07-11 10:36:00,79.7,50.0,29.57,SW,221,5.0,5.0,36,0.00,,,0.00,weatherlink.com 1.10,2013-07-11 16:36:00,
2013-07-11 10:51:00,79.6,46.0,29.56,SW,221,3.0,5.0,31,0.00,,,0.00,weatherlink.com 1.10,2013-07-11 16:51:00,
2013-07-11 11:21:00,80.9,45.0,29.57,SW,221,0.0,3.0,28,0.00,,,0.00,weatherlink.com 1.10,2013-07-11 17:21:00,
2013-07-11 11:36:00,81.8,47.0,29.57,SW,221,2.0,5.0,29,0.00,,,0.00,weatherlink.com 1.10,2013-07-11 17:36:00,
2013-07-11 12:06:00,83.7,46.0,29.55,SW,221,4.0,4.0,27,0.00,,,0.00,weatherlink.com 1.10,2013-07-11 18:06:00,
2013-07-11 12:51:00,87.3,45.0,29.54,SW,221,6.0,6.0,23,0.00,,,0.00,weatherlink.com 1.10,2013-07-11 18:51:00,
2013-07-11 13:06:00,87.2,45.0,29.53,SW,221,1.0,6.0,23,0.00,,,0.00,weatherlink.com 1.10,2013-07-11 19:06:00,
2013-07-11 13:21:00,87.8,44.0,29.52,SW,221,4.0,5.0,22,0.00,,,0.00,weatherlink.com 1.10,2013-07-11 19:21:00,
2013-07-11 13:37:00,89.6,44.0,29.52,SW,221,3.0,7.0,20,0.00,,,0.00,weatherlink.com 1.10,2013-07-11 19:37:00,
2013-07-11 13:52:00,90.8,43.0,29.51,SW,221,0.0,7.0,19,0.00,,,0.00,weatherlink.com 1.10,2013-07-11 19:52:00,
2013-07-11 14:22:00,92.1,41.0,29.51,SW,221,0.0,3.0,17,0.00,,,0.00,weatherlink.com 1.10,2013-07-11 20:22:00,
2013-07-11 14:37:00,93.0,41.0,29.51,SW,221,0.0,1.0,16,0.00,,,0.00,weatherlink.com 1.10,2013-07-11 20:37:00,
2013-07-11 15:07:00,92.6,40.0,29.50,SW,221,3.0,6.0,16,0.00,,,0.00,weatherlink.com 1.10,2013-07-11 21:07:00,
2013-07-11 15:22:00,92.6,42.0,29.50,SW,223,5.0,6.0,17,0.00,,,0.00,weatherlink.com 1.10,2013-07-11 21:22:00,
2013-07-11 15:37:00,92.4,37.0,29.50,NW,316,0.0,8.0,14,0.00,,,0.00,weatherlink.com 1.10,2013-07-11 21:37:00,
2013-07-11 16:07:00,90.1,41.0,29.50,WNW,283,9.0,14.0,18,0.00,,,0.00,weatherlink.com 1.10,2013-07-11 22:07:00,
2013-07-11 16:22:00,88.7,41.0,29.51,NNW,348,8.0,15.0,19,0.00,,,0.00,weatherlink.com 1.10,2013-07-11 22:22:00,
2013-07-11 16:37:00,87.0,41.0,29.52,NNW,347,14.0,15.0,20,0.00,,,0.00,weatherlink.com 1.10,2013-07-11 22:37:00,
2013-07-11 16:52:00,87.3,40.0,29.51,North,5,12.0,18.0,19,0.00,,,0.00,weatherlink.com 1.10,2013-07-11 22:52:00,
2013-07-11 17:07:00,87.2,42.0,29.51,NNE,20,7.0,12.0,20,0.00,,,0.00,weatherlink.com 1.10,2013-07-11 23:07:00,
2013-07-11 17:37:00,85.5,43.0,29.50,NNE,24,9.0,11.0,22,0.00,,,0.00,weatherlink.com 1.10,2013-07-11 23:37:00,
2013-07-11 18:07:00,84.9,42.0,29.49,NNE,17,12.0,19.0,22,0.00,,,0.00,weatherlink.com 1.10,2013-07-12 00:07:00,
2013-07-11 18:37:00,83.4,42.0,29.50,NNE,26,16.0,22.0,23,0.00,,,0.00,weatherlink.com 1.10,2013-07-12 00:37:00,
2013-07-11 18:52:00,83.2,42.0,29.51,NNE,13,11.0,19.0,23,0.00,,,0.00,weatherlink.com 1.10,2013-07-12 00:52:00,
2013-07-11 19:07:00,82.7,42.0,29.52,NNE,24,13.0,18.0,24,0.00,,,0.00,weatherlink.com 1.10,2013-07-12 01:07:00,
2013-07-11 19:37:00,81.0,43.0,29.53,NNE,22,10.0,13.0,26,0.00,,,0.00,weatherlink.com 1.10,2013-07-12 01:37:00,
2013-07-11 19:52:00,81.4,42.0,29.54,NNE,16,14.0,19.0,25,0.00,,,0.00,weatherlink.com 1.10,2013-07-12 01:52:00,
2013-07-11 20:22:00,80.9,43.0,29.57,WNW,292,3.0,14.0,26,0.00,,,0.00,weatherlink.com 1.10,2013-07-12 02:22:00,
2013-07-11 20:37:00,80.2,43.0,29.57,NNW,347,11.0,11.0,27,0.00,,,0.00,weatherlink.com 1.10,2013-07-12 02:37:00,
2013-07-11 20:52:00,80.1,46.0,29.57,WNW,287,16.0,20.0,30,0.00,,,0.00,weatherlink.com 1.10,2013-07-12 02:52:00,
2013-07-11 21:08:00,79.1,46.0,29.57,West,264,10.0,27.0,31,0.00,,,0.00,weatherlink.com 1.10,2013-07-12 03:08:00,
2013-07-11 21:53:00,75.6,47.0,29.61,West,277,21.0,32.0,37,0.00,,,0.00,weatherlink.com 1.10,2013-07-12 03:53:00,
2013-07-11 22:08:00,75.2,48.0,29.61,West,281,14.0,20.0,38,0.00,,,0.00,weatherlink.com 1.10,2013-07-12 04:08:00,
2013-07-11 22:23:00,75.5,47.0,29.61,WNW,283,7.0,11.0,37,0.00,,,0.00,weatherlink.com 1.10,2013-07-12 04:23:00,
2013-07-11 22:38:00,76.3,47.0,29.61,SW,232,10.0,17.0,35,0.00,,,0.00,weatherlink.com 1.10,2013-07-12 04:38:00,
2013-07-11 22:53:00,77.0,47.0,29.62,South,173,9.0,20.0,34,0.00,,,0.00,weatherlink.com 1.10,2013-07-12 04:53:00,
2013-07-11 23:08:00,76.0,47.0,29.60,SW,220,15.0,26.0,36,0.00,,,0.00,weatherlink.com 1.10,2013-07-12 05:08:00,
2013-07-11 23:23:00,75.8,47.0,29.60,West,261,3.0,4.0,36,0.00,,,0.00,weatherlink.com 1.10,2013-07-12 05:23:00,
2013-07-11 23:38:00,76.0,47.0,29.59,West,261,5.0,6.0,36,0.00,,,0.00,weatherlink.com 1.10,2013-07-12 05:38:00,
2013-07-11 23:53:00,75.1,48.0,29.60,NE,41,8.0,9.0,38,0.00,,,0.00,weatherlink.com 1.10,2013-07-12 05:53:00,